KDAL

Dallas Love Field Airport

Dallas, Texas, USA
METAR KDAL 150253Z 13009KT 10SM SCT130 SCT250 29/21 A2989 RMK AO2 SLP114 T02940211 53001
Observed Flight Rules
Aug-15 @ 02:53 UTC (44 minutes ago) Visual Flight Rules
Wind Visibility Clouds
130° at 9 knots 10 miles
  • Scattered at 13,000' AGL
  • Scattered at 25,000' AGL
Temperatures Readings
Current 29°C / 84°F
Dewpoint 21°C / 70°F
Humidity 62%
Altimeter 29.89" Hg
Pressure 1011.4 hPa
Elevation 158
METAR KDAL 150253Z 13009KT 10SM SCT130 SCT250 29/21 A2989 RMK AO2 SLP114 T02940211 53001
Observed Flight Rules
Aug-15 @ 02:53 UTC
(44 minutes ago)
VFR
Wind Visibility
130° at 9 knots 10 miles
Clouds
  • Scattered at 13,000' AGL
  • Scattered at 25,000' AGL
Temperature Dewpoint
29°C / 84°F 21°C / 70°F
Humidity Altimeter Pressure
62% 29.89" Hg 1011.4 hPa